createdAt,value
2018-05-27T00:00:46.910Z,99.90
2018-05-27T00:03:56.246Z,99.90
2018-05-27T00:07:00.188Z,99.90
2018-05-27T00:10:03.429Z,99.90
2018-05-27T00:13:06.651Z,99.90
2018-05-27T00:16:12.275Z,99.90
2018-05-27T00:19:15.530Z,99.90
2018-05-27T00:22:18.851Z,99.90
2018-05-27T00:25:22.042Z,99.90
2018-05-27T00:28:28.513Z,99.90
2018-05-27T00:31:32.412Z,99.90
2018-05-27T00:34:35.703Z,99.90
2018-05-27T00:37:39.736Z,99.90
2018-05-27T00:40:42.931Z,99.90
2018-05-27T00:43:46.144Z,99.90
2018-05-27T00:46:49.350Z,99.90
2018-05-27T00:49:52.604Z,99.90
2018-05-27T00:52:56.976Z,99.90
2018-05-27T00:56:00.450Z,99.90
2018-05-27T00:59:03.700Z,99.90
2018-05-27T01:02:06.880Z,99.90
2018-05-27T01:05:10.165Z,99.90
2018-05-27T01:08:13.324Z,99.90
2018-05-27T01:11:16.562Z,99.90
2018-05-27T01:14:19.741Z,99.90
2018-05-27T01:17:23.774Z,99.90
2018-05-27T01:20:26.994Z,99.90
2018-05-27T01:23:30.242Z,99.90
2018-05-27T01:26:33.884Z,99.90
2018-05-27T01:29:37.073Z,99.90
2018-05-27T01:32:41.910Z,99.90
2018-05-27T01:35:45.082Z,99.90
2018-05-27T01:38:48.490Z,99.90
2018-05-27T01:41:52.502Z,99.90
2018-05-27T01:44:56.008Z,99.90
2018-05-27T01:48:00.007Z,99.90
2018-05-27T01:51:03.307Z,99.90
2018-05-27T01:54:06.543Z,99.90
2018-05-27T01:57:09.756Z,99.90
2018-05-27T02:00:12.977Z,99.90
2018-05-27T02:03:16.142Z,99.90
2018-05-27T02:06:19.369Z,99.90
2018-05-27T02:09:22.594Z,99.90
2018-05-27T02:12:27.783Z,99.90
2018-05-27T02:15:30.952Z,99.90
2018-05-27T02:18:34.165Z,99.90
2018-05-27T02:21:38.010Z,99.90
2018-05-27T02:24:41.336Z,99.90
2018-05-27T02:27:45.311Z,99.90
2018-05-27T02:30:48.514Z,99.90
2018-05-27T02:33:51.699Z,99.90
2018-05-27T02:36:55.068Z,99.90
2018-05-27T02:39:59.728Z,99.90
2018-05-27T02:43:02.942Z,99.90
2018-05-27T02:46:06.160Z,99.90
2018-05-27T02:49:11.416Z,99.90
2018-05-27T02:52:14.655Z,99.90
2018-05-27T02:55:17.851Z,99.90
2018-05-27T02:58:21.025Z,99.90
2018-05-27T03:01:24.672Z,99.90
2018-05-27T03:04:28.639Z,99.90
2018-05-27T03:07:31.884Z,99.90
2018-05-27T03:10:35.103Z,99.90
2018-05-27T03:13:38.386Z,99.90
2018-05-27T03:16:41.664Z,99.90
2018-05-27T03:19:45.357Z,99.90
2018-05-27T03:22:48.605Z,99.90
2018-05-27T03:25:51.803Z,99.90
2018-05-27T03:28:55.345Z,99.90
2018-05-27T03:31:59.101Z,99.90
2018-05-27T03:35:03.203Z,99.90
2018-05-27T03:38:07.210Z,99.90
2018-05-27T03:41:10.396Z,99.90
2018-05-27T03:44:13.740Z,99.90
2018-05-27T03:47:17.653Z,99.90
2018-05-27T03:50:20.876Z,99.90
2018-05-27T03:53:25.176Z,99.90
2018-05-27T03:56:28.788Z,99.90
2018-05-27T03:59:32.018Z,99.90
2018-05-27T04:02:35.225Z,99.90
2018-05-27T04:05:51.112Z,99.90
2018-05-27T04:08:54.844Z,99.90
2018-05-27T04:11:59.034Z,99.90
2018-05-27T04:15:03.020Z,99.90
2018-05-27T04:18:06.297Z,99.90
2018-05-27T04:21:09.760Z,99.90
2018-05-27T04:24:13.705Z,99.90
2018-05-27T04:27:16.902Z,99.90
2018-05-27T04:30:20.141Z,99.90
2018-05-27T04:33:24.144Z,99.90
2018-05-27T04:36:27.911Z,99.90
2018-05-27T04:39:31.185Z,99.90
2018-05-27T04:42:34.386Z,99.90
2018-05-27T04:48:48.038Z,99.90
2018-05-27T04:51:51.305Z,99.90
2018-05-27T04:54:55.817Z,99.60
2018-05-27T04:57:59.145Z,99.90
2018-05-27T05:01:02.376Z,99.20
2018-05-27T05:04:06.223Z,99.90
2018-05-27T05:07:09.456Z,98.70
2018-05-27T05:10:13.413Z,99.50
2018-05-27T05:13:16.589Z,99.10
2018-05-27T05:16:19.810Z,99.40
2018-05-27T05:19:23.111Z,99.30
2018-05-27T05:22:26.435Z,99.20
2018-05-27T05:25:30.689Z,99.20
2018-05-27T05:28:33.914Z,99.10
2018-05-27T05:31:37.696Z,98.40
2018-05-27T05:34:40.975Z,98.10
2018-05-27T05:37:44.272Z,98.00
2018-05-27T05:40:47.472Z,97.70
2018-05-27T05:43:50.663Z,97.70
2018-05-27T05:46:54.225Z,97.50
2018-05-27T05:49:57.455Z,96.10
2018-05-27T05:53:02.425Z,93.10
2018-05-27T05:56:06.020Z,93.10
2018-05-27T05:59:09.211Z,92.30
2018-05-27T06:02:12.398Z,91.90
2018-05-27T06:05:15.593Z,90.40
2018-05-27T06:08:18.920Z,88.60
2018-05-27T06:11:22.115Z,86.90
2018-05-27T06:14:25.290Z,81.60
2018-05-27T06:17:29.025Z,74.30
2018-05-27T06:20:32.250Z,74.90
2018-05-27T06:23:35.525Z,70.80
2018-05-27T06:26:39.625Z,69.10
2018-05-27T06:29:43.104Z,68.90
2018-05-27T06:32:46.331Z,72.00
2018-05-27T06:35:49.522Z,71.30
2018-05-27T06:38:52.711Z,69.40
2018-05-27T06:41:56.295Z,73.10
2018-05-27T06:44:59.528Z,70.70
2018-05-27T06:48:02.816Z,71.10
2018-05-27T06:51:06.007Z,71.90
2018-05-27T06:54:09.209Z,73.10
2018-05-27T06:57:13.086Z,74.60
2018-05-27T07:00:17.250Z,76.80
2018-05-27T07:03:20.509Z,76.90
2018-05-27T07:06:23.681Z,69.80
2018-05-27T07:09:28.129Z,66.40
2018-05-27T07:12:31.371Z,66.20
2018-05-27T07:15:34.566Z,58.60
2018-05-27T07:18:37.841Z,58.20
2018-05-27T07:21:41.884Z,54.90
2018-05-27T07:24:45.070Z,54.70
2018-05-27T07:27:49.260Z,52.70
2018-05-27T07:30:52.438Z,52.50
2018-05-27T07:33:55.654Z,51.80
2018-05-27T07:36:59.277Z,52.50
2018-05-27T07:40:02.536Z,55.20
2018-05-27T07:43:06.471Z,54.30
2018-05-27T07:46:10.511Z,52.60
2018-05-27T07:49:13.800Z,52.30
2018-05-27T07:52:17.157Z,50.60
2018-05-27T07:55:21.480Z,50.60
2018-05-27T07:58:25.681Z,55.50
2018-05-27T08:01:29.919Z,56.90
2018-05-27T08:04:34.072Z,56.70
2018-05-27T08:07:37.428Z,54.70
2018-05-27T08:10:40.761Z,51.90
2018-05-27T08:13:43.988Z,50.60
2018-05-27T08:16:48.348Z,53.20
2018-05-27T08:19:51.612Z,54.80
2018-05-27T08:22:54.811Z,56.20
2018-05-27T08:25:58.370Z,55.50
2018-05-27T08:29:01.670Z,55.60
2018-05-27T08:32:04.865Z,56.90
2018-05-27T08:35:08.178Z,57.30
2018-05-27T08:38:11.341Z,56.60
2018-05-27T08:41:14.841Z,58.30
2018-05-27T08:44:18.013Z,57.50
2018-05-27T08:47:21.553Z,56.60
2018-05-27T08:50:24.749Z,56.10
2018-05-27T08:53:28.491Z,55.50
2018-05-27T08:56:31.741Z,58.10
2018-05-27T08:59:35.781Z,55.70
2018-05-27T09:02:39.752Z,56.60
2018-05-27T09:05:43.014Z,56.30
2018-05-27T09:08:46.271Z,56.70
2018-05-27T09:11:49.554Z,56.30
2018-05-27T09:14:54.532Z,55.10
2018-05-27T09:17:58.141Z,54.80
2018-05-27T09:21:01.670Z,55.90
2018-05-27T09:24:05.132Z,56.00
2018-05-27T09:27:10.352Z,52.30
2018-05-27T09:30:13.875Z,53.50
2018-05-27T09:33:17.152Z,55.60
2018-05-27T09:36:21.100Z,54.40
2018-05-27T09:39:24.297Z,54.30
2018-05-27T09:42:27.741Z,55.30
2018-05-27T09:45:31.260Z,55.60
2018-05-27T09:48:34.576Z,53.70
2018-05-27T09:51:37.828Z,54.80
2018-05-27T09:54:41.921Z,55.40
2018-05-27T09:57:45.177Z,56.90
2018-05-27T10:00:49.157Z,57.30
2018-05-27T10:03:52.362Z,57.20
2018-05-27T10:06:56.766Z,58.70
2018-05-27T10:10:00.211Z,58.50
2018-05-27T10:13:03.434Z,60.70
2018-05-27T10:16:06.921Z,57.70
2018-05-27T10:19:10.262Z,57.50
2018-05-27T10:22:14.330Z,56.40
2018-05-27T10:25:17.548Z,56.20
2018-05-27T10:28:20.970Z,55.90
2018-05-27T10:31:24.145Z,56.90
2018-05-27T10:34:27.657Z,57.10
2018-05-27T10:37:30.987Z,57.50
2018-05-27T10:40:34.222Z,56.20
2018-05-27T10:43:37.537Z,56.70
2018-05-27T10:46:41.122Z,56.80
2018-05-27T10:49:44.480Z,56.90
2018-05-27T10:52:47.702Z,57.70
2018-05-27T10:55:57.757Z,57.20
2018-05-27T10:59:01.668Z,58.60
2018-05-27T11:02:04.907Z,59.20
2018-05-27T11:05:08.933Z,60.90
2018-05-27T11:08:12.136Z,60.60
2018-05-27T11:11:15.602Z,59.60
2018-05-27T11:14:18.804Z,60.20
2018-05-27T11:17:22.007Z,59.80
2018-05-27T11:20:25.214Z,60.00
2018-05-27T11:23:30.201Z,60.30
2018-05-27T11:26:33.463Z,60.10
2018-05-27T11:29:36.711Z,61.60
2018-05-27T11:32:41.806Z,63.90
2018-05-27T11:35:45.051Z,62.80
2018-05-27T11:38:49.162Z,63.00
2018-05-27T11:41:52.414Z,61.50
2018-05-27T11:44:55.653Z,62.40
2018-05-27T11:48:00.097Z,62.60
2018-05-27T11:51:03.422Z,64.00
2018-05-27T11:54:06.881Z,66.30
2018-05-27T11:57:10.293Z,66.50
2018-05-27T12:00:14.270Z,67.80
2018-05-27T12:03:17.792Z,67.50
2018-05-27T12:06:21.164Z,68.50
2018-05-27T12:09:24.569Z,68.20
2018-05-27T12:12:28.608Z,69.30
2018-05-27T12:15:32.112Z,69.20
2018-05-27T12:18:36.313Z,68.40
2018-05-27T12:21:39.547Z,66.70
2018-05-27T12:24:43.797Z,71.30
2018-05-27T12:27:47.039Z,71.00
2018-05-27T12:30:51.038Z,70.70
2018-05-27T12:33:54.294Z,70.50
2018-05-27T12:36:58.713Z,69.50
2018-05-27T12:40:02.760Z,70.80
2018-05-27T12:43:06.002Z,70.70
2018-05-27T12:46:10.023Z,69.30
2018-05-27T12:49:13.282Z,68.80
2018-05-27T12:52:16.716Z,69.50
2018-05-27T12:55:20.076Z,70.50
2018-05-27T12:58:23.372Z,70.50
2018-05-27T13:01:26.563Z,70.80
2018-05-27T13:04:30.239Z,70.10
2018-05-27T13:07:33.513Z,70.90
2018-05-27T13:10:37.563Z,69.40
2018-05-27T13:13:40.907Z,69.10
2018-05-27T13:16:44.196Z,68.90
2018-05-27T13:19:47.458Z,68.90
2018-05-27T13:22:50.699Z,67.90
2018-05-27T13:25:54.011Z,67.30
2018-05-27T13:28:57.228Z,66.90
2018-05-27T13:32:00.957Z,66.20
2018-05-27T13:35:04.177Z,66.80
2018-05-27T13:38:10.208Z,65.60
2018-05-27T13:41:13.473Z,64.00
2018-05-27T13:44:16.737Z,60.10
2018-05-27T13:47:20.781Z,58.50
2018-05-27T13:50:24.058Z,58.10
2018-05-27T13:53:27.328Z,57.90
2018-05-27T13:56:32.421Z,59.10
2018-05-27T13:59:35.620Z,59.20
2018-05-27T14:02:39.341Z,59.80
2018-05-27T14:05:42.559Z,59.80
2018-05-27T14:08:47.352Z,65.10
2018-05-27T14:11:50.706Z,64.90
2018-05-27T14:14:54.116Z,65.60
2018-05-27T14:17:57.317Z,70.50
2018-05-27T14:21:01.622Z,84.50
2018-05-27T14:24:04.933Z,84.20
2018-05-27T14:27:08.191Z,83.50
2018-05-27T14:30:11.458Z,87.30
2018-05-27T14:33:14.638Z,90.50
2018-05-27T14:36:19.222Z,94.30
2018-05-27T14:39:22.940Z,97.10
2018-05-27T14:42:28.095Z,99.90
2018-05-27T14:45:31.394Z,99.90
2018-05-27T14:48:34.698Z,99.20
2018-05-27T14:55:10.742Z,96.00
2018-05-27T14:58:23.091Z,95.90
2018-05-27T15:01:27.055Z,96.90
2018-05-27T15:04:30.227Z,96.90
2018-05-27T15:07:35.100Z,97.80
2018-05-27T15:10:38.407Z,97.60
2018-05-27T15:13:41.642Z,97.40
2018-05-27T15:16:45.839Z,96.60
2018-05-27T15:19:49.033Z,96.80
2018-05-27T15:22:53.354Z,98.60
2018-05-27T15:25:57.376Z,98.70
2018-05-27T15:29:03.156Z,98.90
2018-05-27T15:32:28.393Z,98.60
2018-05-27T15:35:36.641Z,97.50
2018-05-27T15:38:40.638Z,97.20
2018-05-27T15:41:43.902Z,97.10
2018-05-27T15:44:47.236Z,99.20
2018-05-27T15:47:50.411Z,99.70
2018-05-27T15:50:55.241Z,99.90
2018-05-27T15:53:59.552Z,99.90
2018-05-27T15:57:03.085Z,99.90
2018-05-27T16:00:07.062Z,99.90
2018-05-27T16:03:10.301Z,99.90
2018-05-27T16:06:14.384Z,99.90
2018-05-27T16:09:18.492Z,99.90
2018-05-27T16:12:21.779Z,99.90
2018-05-27T16:15:26.183Z,99.90
2018-05-27T16:18:29.392Z,99.90
2018-05-27T16:21:32.908Z,99.90
2018-05-27T16:24:36.242Z,99.60
2018-05-27T16:27:40.226Z,99.90
2018-05-27T16:30:45.729Z,99.90
2018-05-27T16:33:49.367Z,99.50
2018-05-27T16:36:53.572Z,99.90
2018-05-27T16:39:57.196Z,99.90
2018-05-27T16:43:13.924Z,99.90
2018-05-27T16:46:20.801Z,99.90
2018-05-27T16:49:26.085Z,99.90
2018-05-27T16:55:59.469Z,99.90
2018-05-27T16:59:02.868Z,99.90
2018-05-27T17:02:09.747Z,99.90
2018-05-27T17:05:13.092Z,99.90
2018-05-27T17:08:16.621Z,99.90
2018-05-27T17:11:19.883Z,99.90
2018-05-27T17:14:27.463Z,99.90
2018-05-27T17:17:30.934Z,99.90
2018-05-27T17:20:34.242Z,99.90
2018-05-27T17:23:38.266Z,99.90
2018-05-27T17:26:58.367Z,99.90
2018-05-27T17:30:03.370Z,99.90
2018-05-27T17:33:06.657Z,99.90
2018-05-27T17:36:10.260Z,99.90
2018-05-27T17:39:13.463Z,99.90
2018-05-27T17:42:16.766Z,99.90
2018-05-27T17:45:32.221Z,99.90
2018-05-27T17:48:50.424Z,99.90
2018-05-27T17:52:02.808Z,99.90
2018-05-27T17:55:23.261Z,99.90
2018-05-27T17:58:26.477Z,99.90
2018-05-27T18:01:29.654Z,99.90
2018-05-27T18:04:32.862Z,99.90
2018-05-27T18:07:36.202Z,99.90
2018-05-27T18:10:53.902Z,99.90
2018-05-27T18:13:57.097Z,99.90
2018-05-27T18:17:00.654Z,99.90
2018-05-27T18:20:05.252Z,99.90
2018-05-27T18:23:09.672Z,99.90
2018-05-27T18:26:13.266Z,99.90
2018-05-27T18:29:16.471Z,99.90
2018-05-27T18:32:19.701Z,99.90
2018-05-27T18:35:24.419Z,99.90
2018-05-27T18:38:28.613Z,99.90
2018-05-27T18:41:33.290Z,99.90
2018-05-27T18:44:42.600Z,99.90
2018-05-27T18:47:46.654Z,99.90
2018-05-27T18:50:50.012Z,99.90
2018-05-27T18:53:53.331Z,99.90
2018-05-27T18:56:56.548Z,99.90
2018-05-27T18:59:59.763Z,99.90
2018-05-27T19:03:04.394Z,99.90
2018-05-27T19:06:08.513Z,99.90
2018-05-27T19:09:12.531Z,99.90
2018-05-27T19:12:16.600Z,99.90
2018-05-27T19:15:19.960Z,99.90
2018-05-27T19:18:23.939Z,99.90
2018-05-27T19:21:27.262Z,99.90
2018-05-27T19:24:30.707Z,99.90
2018-05-27T19:27:34.177Z,99.90
2018-05-27T19:30:38.189Z,99.90
2018-05-27T19:33:41.593Z,99.90
2018-05-27T19:36:44.896Z,99.90
2018-05-27T19:39:52.155Z,99.90
2018-05-27T19:42:55.377Z,99.90
2018-05-27T19:45:59.611Z,99.90
2018-05-27T19:49:03.023Z,99.90
2018-05-27T19:52:07.047Z,99.90
2018-05-27T19:55:10.344Z,99.90
2018-05-27T19:58:15.421Z,99.90
2018-05-27T20:01:18.723Z,99.90
2018-05-27T20:04:22.682Z,99.90
2018-05-27T20:07:25.927Z,99.90
2018-05-27T20:10:29.504Z,99.90
2018-05-27T20:13:33.660Z,99.90
2018-05-27T20:16:37.472Z,99.90
2018-05-27T20:19:41.335Z,99.90
2018-05-27T20:22:44.673Z,99.90
2018-05-27T20:25:50.113Z,99.90
2018-05-27T20:28:54.101Z,99.90
2018-05-27T20:31:57.899Z,99.90
2018-05-27T20:35:01.125Z,99.90
2018-05-27T20:38:05.812Z,99.90
2018-05-27T20:41:09.058Z,99.90
2018-05-27T20:44:13.066Z,99.90
2018-05-27T20:47:17.143Z,99.90
2018-05-27T20:50:20.461Z,99.90
2018-05-27T20:53:23.704Z,99.90
2018-05-27T20:56:26.939Z,99.90
2018-05-27T20:59:30.158Z,99.90
2018-05-27T21:02:34.828Z,99.90
2018-05-27T21:05:38.177Z,99.90
2018-05-27T21:08:42.162Z,99.90
2018-05-27T21:11:55.934Z,99.90
2018-05-27T21:15:00.015Z,99.90
2018-05-27T21:18:03.353Z,99.90
2018-05-27T21:21:06.640Z,99.90
2018-05-27T21:24:09.853Z,99.90
2018-05-27T21:27:13.464Z,99.90
2018-05-27T21:30:16.732Z,99.90
2018-05-27T21:33:20.005Z,99.90
2018-05-27T21:36:23.327Z,99.90
2018-05-27T21:39:26.640Z,99.90
2018-05-27T21:42:29.901Z,99.90
2018-05-27T21:45:33.118Z,99.90
2018-05-27T21:48:37.551Z,99.90
2018-05-27T21:51:41.565Z,99.90
2018-05-27T21:54:46.540Z,99.90
2018-05-27T21:57:50.256Z,99.90
2018-05-27T22:00:53.503Z,99.90
2018-05-27T22:03:56.953Z,99.90
2018-05-27T22:07:01.039Z,99.90
2018-05-27T22:10:04.392Z,99.90
2018-05-27T22:13:07.693Z,99.90
2018-05-27T22:16:10.939Z,99.90
2018-05-27T22:19:14.676Z,99.90
2018-05-27T22:22:17.890Z,99.90
2018-05-27T22:25:21.601Z,99.90
2018-05-27T22:28:24.937Z,99.90
2018-05-27T22:31:28.145Z,99.90
2018-05-27T22:34:31.793Z,99.90
2018-05-27T22:37:36.429Z,99.90
2018-05-27T22:40:39.664Z,99.90
2018-05-27T22:43:43.682Z,99.90
2018-05-27T22:46:47.518Z,99.90
2018-05-27T22:49:50.778Z,99.90
2018-05-27T22:52:53.996Z,99.90
2018-05-27T22:55:57.206Z,99.90
2018-05-27T22:59:00.359Z,99.90
2018-05-27T23:02:04.262Z,99.90
2018-05-27T23:05:08.240Z,99.90
2018-05-27T23:08:12.255Z,99.90
2018-05-27T23:11:15.634Z,99.90
2018-05-27T23:14:18.855Z,99.90
2018-05-27T23:17:22.069Z,99.90
2018-05-27T23:20:25.291Z,99.90
2018-05-27T23:23:28.477Z,99.90
2018-05-27T23:26:32.621Z,99.90
2018-05-27T23:29:37.013Z,99.90
2018-05-27T23:32:40.196Z,99.90
2018-05-27T23:35:45.712Z,99.90
2018-05-27T23:38:48.903Z,99.90
2018-05-27T23:41:52.107Z,99.90
2018-05-27T23:44:55.640Z,99.90
2018-05-27T23:47:59.585Z,99.90
2018-05-27T23:51:02.882Z,99.90
2018-05-27T23:54:06.138Z,99.90
2018-05-27T23:57:10.235Z,99.90
